sensor_id;sensor_type;location;lat;lon;timestamp;temperature;humidity
49379;DHT22;35254;47.990;-1.608;2023-02-01T00:00:23;20.30;52.20
49379;DHT22;35254;47.990;-1.608;2023-02-01T00:02:49;20.30;53.10
49379;DHT22;35254;47.990;-1.608;2023-02-01T00:05:14;20.20;52.90
49379;DHT22;35254;47.990;-1.608;2023-02-01T00:07:40;20.20;52.70
49379;DHT22;35254;47.990;-1.608;2023-02-01T00:10:06;20.20;52.50
49379;DHT22;35254;47.990;-1.608;2023-02-01T00:12:32;20.20;52.40
49379;DHT22;35254;47.990;-1.608;2023-02-01T00:14:58;20.20;52.70
49379;DHT22;35254;47.990;-1.608;2023-02-01T00:17:24;20.20;52.40
49379;DHT22;35254;47.990;-1.608;2023-02-01T00:19:49;20.20;52.70
49379;DHT22;35254;47.990;-1.608;2023-02-01T00:22:15;20.20;52.30
49379;DHT22;35254;47.990;-1.608;2023-02-01T00:24:41;20.20;52.20
49379;DHT22;35254;47.990;-1.608;2023-02-01T00:27:06;20.20;52.40
49379;DHT22;35254;47.990;-1.608;2023-02-01T00:29:32;20.20;52.10
49379;DHT22;35254;47.990;-1.608;2023-02-01T00:31:57;20.20;51.90
49379;DHT22;35254;47.990;-1.608;2023-02-01T00:34:23;20.20;52.40
49379;DHT22;35254;47.990;-1.608;2023-02-01T00:36:49;20.20;52.30
49379;DHT22;35254;47.990;-1.608;2023-02-01T00:39:14;20.20;52.40
49379;DHT22;35254;47.990;-1.608;2023-02-01T00:41:41;20.20;52.20
49379;DHT22;35254;47.990;-1.608;2023-02-01T00:44:07;20.20;52.10
49379;DHT22;35254;47.990;-1.608;2023-02-01T00:46:33;20.20;52.20
49379;DHT22;35254;47.990;-1.608;2023-02-01T00:48:59;20.20;51.60
49379;DHT22;35254;47.990;-1.608;2023-02-01T00:51:27;20.20;51.90
49379;DHT22;35254;47.990;-1.608;2023-02-01T00:53:53;20.10;52.40
49379;DHT22;35254;47.990;-1.608;2023-02-01T00:56:19;20.10;52.50
49379;DHT22;35254;47.990;-1.608;2023-02-01T00:58:45;20.10;52.00
49379;DHT22;35254;47.990;-1.608;2023-02-01T01:01:17;20.10;52.20
49379;DHT22;35254;47.990;-1.608;2023-02-01T01:03:45;20.20;52.10
49379;DHT22;35254;47.990;-1.608;2023-02-01T01:06:14;20.10;51.90
49379;DHT22;35254;47.990;-1.608;2023-02-01T01:08:41;20.10;52.30
49379;DHT22;35254;47.990;-1.608;2023-02-01T01:11:15;20.10;51.60
49379;DHT22;35254;47.990;-1.608;2023-02-01T01:13:41;20.10;52.10
49379;DHT22;35254;47.990;-1.608;2023-02-01T01:16:08;20.10;51.70
49379;DHT22;35254;47.990;-1.608;2023-02-01T01:18:35;20.10;52.60
49379;DHT22;35254;47.990;-1.608;2023-02-01T01:21:00;20.10;51.60
49379;DHT22;35254;47.990;-1.608;2023-02-01T01:23:27;20.10;51.50
49379;DHT22;35254;47.990;-1.608;2023-02-01T01:25:52;20.10;51.00
49379;DHT22;35254;47.990;-1.608;2023-02-01T01:28:18;20.10;51.20
49379;DHT22;35254;47.990;-1.608;2023-02-01T01:30:44;20.10;51.60
49379;DHT22;35254;47.990;-1.608;2023-02-01T01:33:10;20.10;52.20
49379;DHT22;35254;47.990;-1.608;2023-02-01T01:35:36;20.10;51.60
49379;DHT22;35254;47.990;-1.608;2023-02-01T01:38:02;20.10;51.70
49379;DHT22;35254;47.990;-1.608;2023-02-01T01:40:29;20.10;51.20
49379;DHT22;35254;47.990;-1.608;2023-02-01T01:42:55;20.10;51.20
49379;DHT22;35254;47.990;-1.608;2023-02-01T01:45:32;20.10;51.80
49379;DHT22;35254;47.990;-1.608;2023-02-01T01:48:21;20.10;51.60
49379;DHT22;35254;47.990;-1.608;2023-02-01T01:51:06;20.00;51.70
49379;DHT22;35254;47.990;-1.608;2023-02-01T01:53:38;20.00;51.40
49379;DHT22;35254;47.990;-1.608;2023-02-01T01:56:06;20.00;51.30
49379;DHT22;35254;47.990;-1.608;2023-02-01T01:58:33;20.00;51.80
49379;DHT22;35254;47.990;-1.608;2023-02-01T02:00:59;20.00;51.80
49379;DHT22;35254;47.990;-1.608;2023-02-01T02:03:43;20.00;51.70
49379;DHT22;35254;47.990;-1.608;2023-02-01T02:06:20;20.00;51.70
49379;DHT22;35254;47.990;-1.608;2023-02-01T02:08:47;20.00;51.80
49379;DHT22;35254;47.990;-1.608;2023-02-01T02:11:16;20.00;51.50
49379;DHT22;35254;47.990;-1.608;2023-02-01T02:13:46;20.00;51.80
49379;DHT22;35254;47.990;-1.608;2023-02-01T02:16:38;20.00;51.50
49379;DHT22;35254;47.990;-1.608;2023-02-01T02:27:35;20.00;51.00
49379;DHT22;35254;47.990;-1.608;2023-02-01T02:33:22;19.90;51.00
49379;DHT22;35254;47.990;-1.608;2023-02-01T02:38:54;19.90;51.20
49379;DHT22;35254;47.990;-1.608;2023-02-01T02:47:44;19.90;51.10
49379;DHT22;35254;47.990;-1.608;2023-02-01T02:53:11;19.90;51.30
49379;DHT22;35254;47.990;-1.608;2023-02-01T02:55:58;19.90;50.90
49379;DHT22;35254;47.990;-1.608;2023-02-01T02:58:43;19.90;50.60
49379;DHT22;35254;47.990;-1.608;2023-02-01T03:01:30;19.90;50.40
49379;DHT22;35254;47.990;-1.608;2023-02-01T03:04:15;19.90;50.40
49379;DHT22;35254;47.990;-1.608;2023-02-01T03:06:44;19.90;50.50
49379;DHT22;35254;47.990;-1.608;2023-02-01T03:09:20;19.90;50.40
49379;DHT22;35254;47.990;-1.608;2023-02-01T03:11:49;19.90;50.20
49379;DHT22;35254;47.990;-1.608;2023-02-01T03:14:38;19.90;50.30
49379;DHT22;35254;47.990;-1.608;2023-02-01T03:17:15;19.90;50.40
49379;DHT22;35254;47.990;-1.608;2023-02-01T03:19:47;19.80;50.60
49379;DHT22;35254;47.990;-1.608;2023-02-01T03:22:20;19.80;50.50
49379;DHT22;35254;47.990;-1.608;2023-02-01T03:24:55;19.80;50.70
49379;DHT22;35254;47.990;-1.608;2023-02-01T03:28:02;19.90;50.50
49379;DHT22;35254;47.990;-1.608;2023-02-01T03:30:35;19.80;50.70
49379;DHT22;35254;47.990;-1.608;2023-02-01T03:33:05;19.80;50.30
49379;DHT22;35254;47.990;-1.608;2023-02-01T03:36:02;19.80;50.50
49379;DHT22;35254;47.990;-1.608;2023-02-01T03:41:42;19.80;50.20
49379;DHT22;35254;47.990;-1.608;2023-02-01T03:49:39;19.80;50.00
49379;DHT22;35254;47.990;-1.608;2023-02-01T03:52:10;19.80;50.10
49379;DHT22;35254;47.990;-1.608;2023-02-01T03:54:36;19.70;49.90
49379;DHT22;35254;47.990;-1.608;2023-02-01T03:57:07;19.80;49.90
49379;DHT22;35254;47.990;-1.608;2023-02-01T03:59:41;19.80;49.80
49379;DHT22;35254;47.990;-1.608;2023-02-01T04:02:08;19.80;50.00
49379;DHT22;35254;47.990;-1.608;2023-02-01T04:04:35;19.80;49.80
49379;DHT22;35254;47.990;-1.608;2023-02-01T04:07:01;19.80;49.70
49379;DHT22;35254;47.990;-1.608;2023-02-01T04:09:26;19.70;49.50
49379;DHT22;35254;47.990;-1.608;2023-02-01T04:11:52;19.80;49.60
49379;DHT22;35254;47.990;-1.608;2023-02-01T04:14:18;19.80;49.80
49379;DHT22;35254;47.990;-1.608;2023-02-01T04:16:45;19.80;49.60
49379;DHT22;35254;47.990;-1.608;2023-02-01T04:19:10;19.80;49.40
49379;DHT22;35254;47.990;-1.608;2023-02-01T04:21:36;19.80;49.60
49379;DHT22;35254;47.990;-1.608;2023-02-01T04:24:02;19.80;49.40
49379;DHT22;35254;47.990;-1.608;2023-02-01T04:26:27;19.80;49.30
49379;DHT22;35254;47.990;-1.608;2023-02-01T04:28:53;19.80;49.20
49379;DHT22;35254;47.990;-1.608;2023-02-01T04:31:19;19.80;49.30
49379;DHT22;35254;47.990;-1.608;2023-02-01T04:33:51;19.80;49.30
49379;DHT22;35254;47.990;-1.608;2023-02-01T04:36:19;19.80;49.10
49379;DHT22;35254;47.990;-1.608;2023-02-01T04:38:51;19.80;49.20
49379;DHT22;35254;47.990;-1.608;2023-02-01T04:41:17;19.90;49.10
49379;DHT22;35254;47.990;-1.608;2023-02-01T04:43:46;19.80;49.20
49379;DHT22;35254;47.990;-1.608;2023-02-01T04:46:12;19.80;49.00
49379;DHT22;35254;47.990;-1.608;2023-02-01T04:48:38;19.90;49.10
49379;DHT22;35254;47.990;-1.608;2023-02-01T04:51:04;19.80;48.90
49379;DHT22;35254;47.990;-1.608;2023-02-01T04:53:30;19.80;49.00
49379;DHT22;35254;47.990;-1.608;2023-02-01T04:55:55;19.80;49.20
49379;DHT22;35254;47.990;-1.608;2023-02-01T04:58:21;19.80;48.90
49379;DHT22;35254;47.990;-1.608;2023-02-01T05:00:47;19.80;48.90
49379;DHT22;35254;47.990;-1.608;2023-02-01T05:03:12;19.90;48.90
49379;DHT22;35254;47.990;-1.608;2023-02-01T05:05:38;19.90;48.90
49379;DHT22;35254;47.990;-1.608;2023-02-01T05:08:04;19.90;48.80
49379;DHT22;35254;47.990;-1.608;2023-02-01T05:10:29;19.90;48.70
49379;DHT22;35254;47.990;-1.608;2023-02-01T05:12:55;19.90;48.60
49379;DHT22;35254;47.990;-1.608;2023-02-01T05:15:39;19.90;48.70
49379;DHT22;35254;47.990;-1.608;2023-02-01T05:18:05;19.90;48.70
49379;DHT22;35254;47.990;-1.608;2023-02-01T05:20:31;19.80;48.70
49379;DHT22;35254;47.990;-1.608;2023-02-01T05:22:56;19.90;48.70
49379;DHT22;35254;47.990;-1.608;2023-02-01T05:25:22;19.80;48.60
49379;DHT22;35254;47.990;-1.608;2023-02-01T05:27:48;19.90;48.50
49379;DHT22;35254;47.990;-1.608;2023-02-01T05:30:13;19.80;48.40
49379;DHT22;35254;47.990;-1.608;2023-02-01T05:32:39;19.90;48.40
49379;DHT22;35254;47.990;-1.608;2023-02-01T05:35:05;19.90;48.30
49379;DHT22;35254;47.990;-1.608;2023-02-01T05:37:31;19.90;48.20
49379;DHT22;35254;47.990;-1.608;2023-02-01T05:39:56;19.90;48.20
49379;DHT22;35254;47.990;-1.608;2023-02-01T05:42:22;19.90;48.10
49379;DHT22;35254;47.990;-1.608;2023-02-01T05:44:47;19.90;48.10
49379;DHT22;35254;47.990;-1.608;2023-02-01T05:47:13;19.90;47.90
49379;DHT22;35254;47.990;-1.608;2023-02-01T05:49:39;19.90;47.90
49379;DHT22;35254;47.990;-1.608;2023-02-01T05:52:04;19.90;48.10
49379;DHT22;35254;47.990;-1.608;2023-02-01T05:54:30;19.90;47.80
49379;DHT22;35254;47.990;-1.608;2023-02-01T05:56:55;19.90;48.10
49379;DHT22;35254;47.990;-1.608;2023-02-01T05:59:21;19.90;48.00
49379;DHT22;35254;47.990;-1.608;2023-02-01T06:01:47;19.90;47.80
49379;DHT22;35254;47.990;-1.608;2023-02-01T06:04:12;19.90;47.80
49379;DHT22;35254;47.990;-1.608;2023-02-01T06:06:38;19.90;47.60
49379;DHT22;35254;47.990;-1.608;2023-02-01T06:09:04;19.90;47.70
49379;DHT22;35254;47.990;-1.608;2023-02-01T06:11:30;19.90;47.80
49379;DHT22;35254;47.990;-1.608;2023-02-01T06:13:55;19.90;48.00
49379;DHT22;35254;47.990;-1.608;2023-02-01T06:16:22;19.90;47.80
49379;DHT22;35254;47.990;-1.608;2023-02-01T06:18:48;19.90;48.00
49379;DHT22;35254;47.990;-1.608;2023-02-01T06:21:13;19.90;47.80
49379;DHT22;35254;47.990;-1.608;2023-02-01T06:23:41;19.90;47.90
49379;DHT22;35254;47.990;-1.608;2023-02-01T06:26:07;19.90;47.70
49379;DHT22;35254;47.990;-1.608;2023-02-01T06:28:33;19.90;47.80
49379;DHT22;35254;47.990;-1.608;2023-02-01T06:31:04;19.90;47.60
49379;DHT22;35254;47.990;-1.608;2023-02-01T06:33:32;19.90;47.80
49379;DHT22;35254;47.990;-1.608;2023-02-01T06:36:00;19.90;47.70
49379;DHT22;35254;47.990;-1.608;2023-02-01T06:38:26;20.00;47.70
49379;DHT22;35254;47.990;-1.608;2023-02-01T06:40:53;20.00;47.80
49379;DHT22;35254;47.990;-1.608;2023-02-01T06:43:20;19.90;47.70
49379;DHT22;35254;47.990;-1.608;2023-02-01T06:45:46;19.90;47.80
49379;DHT22;35254;47.990;-1.608;2023-02-01T06:48:11;19.90;47.70
49379;DHT22;35254;47.990;-1.608;2023-02-01T06:50:37;19.90;47.70
49379;DHT22;35254;47.990;-1.608;2023-02-01T06:53:03;19.80;47.70
49379;DHT22;35254;47.990;-1.608;2023-02-01T06:55:28;19.80;47.60
49379;DHT22;35254;47.990;-1.608;2023-02-01T06:57:54;19.90;47.60
49379;DHT22;35254;47.990;-1.608;2023-02-01T07:00:21;19.80;47.70
49379;DHT22;35254;47.990;-1.608;2023-02-01T07:02:47;19.90;47.60
49379;DHT22;35254;47.990;-1.608;2023-02-01T07:05:12;19.80;47.60
49379;DHT22;35254;47.990;-1.608;2023-02-01T07:07:38;19.80;47.50
49379;DHT22;35254;47.990;-1.608;2023-02-01T07:10:04;19.90;47.60
49379;DHT22;35254;47.990;-1.608;2023-02-01T07:12:30;19.80;47.50
49379;DHT22;35254;47.990;-1.608;2023-02-01T07:14:55;19.80;47.30
49379;DHT22;35254;47.990;-1.608;2023-02-01T07:17:22;19.80;47.40
49379;DHT22;35254;47.990;-1.608;2023-02-01T07:19:47;19.80;47.30
49379;DHT22;35254;47.990;-1.608;2023-02-01T07:22:16;19.80;47.50
49379;DHT22;35254;47.990;-1.608;2023-02-01T07:24:42;19.90;48.10
49379;DHT22;35254;47.990;-1.608;2023-02-01T07:27:07;20.00;48.40
49379;DHT22;35254;47.990;-1.608;2023-02-01T07:29:33;20.10;48.70
49379;DHT22;35254;47.990;-1.608;2023-02-01T07:31:59;20.00;49.00
49379;DHT22;35254;47.990;-1.608;2023-02-01T07:34:26;20.00;48.90
49379;DHT22;35254;47.990;-1.608;2023-02-01T07:36:51;20.00;48.80
49379;DHT22;35254;47.990;-1.608;2023-02-01T07:39:17;19.90;48.70
49379;DHT22;35254;47.990;-1.608;2023-02-01T07:41:42;19.90;48.50
49379;DHT22;35254;47.990;-1.608;2023-02-01T07:44:08;19.90;48.40
49379;DHT22;35254;47.990;-1.608;2023-02-01T07:46:33;19.90;48.40
49379;DHT22;35254;47.990;-1.608;2023-02-01T07:48:59;19.90;48.40
49379;DHT22;35254;47.990;-1.608;2023-02-01T07:51:25;19.90;48.40
49379;DHT22;35254;47.990;-1.608;2023-02-01T07:53:51;19.90;48.20
49379;DHT22;35254;47.990;-1.608;2023-02-01T07:56:19;19.90;48.00
49379;DHT22;35254;47.990;-1.608;2023-02-01T07:58:53;19.90;48.20
49379;DHT22;35254;47.990;-1.608;2023-02-01T08:01:24;19.90;48.10
49379;DHT22;35254;47.990;-1.608;2023-02-01T08:03:51;19.80;47.80
49379;DHT22;35254;47.990;-1.608;2023-02-01T08:06:19;19.80;47.80
49379;DHT22;35254;47.990;-1.608;2023-02-01T08:08:46;19.80;47.90
49379;DHT22;35254;47.990;-1.608;2023-02-01T08:11:12;19.80;47.80
49379;DHT22;35254;47.990;-1.608;2023-02-01T08:13:39;19.80;48.10
49379;DHT22;35254;47.990;-1.608;2023-02-01T08:16:07;19.90;47.90
49379;DHT22;35254;47.990;-1.608;2023-02-01T08:18:33;20.00;47.90
49379;DHT22;35254;47.990;-1.608;2023-02-01T08:21:07;19.90;47.60
49379;DHT22;35254;47.990;-1.608;2023-02-01T08:23:35;19.90;47.70
49379;DHT22;35254;47.990;-1.608;2023-02-01T08:26:21;19.90;47.80
49379;DHT22;35254;47.990;-1.608;2023-02-01T08:28:58;19.90;47.50
49379;DHT22;35254;47.990;-1.608;2023-02-01T08:31:26;19.90;47.60
49379;DHT22;35254;47.990;-1.608;2023-02-01T08:33:57;19.90;47.60
49379;DHT22;35254;47.990;-1.608;2023-02-01T08:36:24;19.90;47.50
49379;DHT22;35254;47.990;-1.608;2023-02-01T08:38:50;19.90;47.50
49379;DHT22;35254;47.990;-1.608;2023-02-01T08:41:19;19.80;48.90
49379;DHT22;35254;47.990;-1.608;2023-02-01T08:43:45;19.70;49.20
49379;DHT22;35254;47.990;-1.608;2023-02-01T08:46:13;19.70;49.40
49379;DHT22;35254;47.990;-1.608;2023-02-01T08:48:39;19.70;49.50
49379;DHT22;35254;47.990;-1.608;2023-02-01T08:51:08;19.60;49.60
49379;DHT22;35254;47.990;-1.608;2023-02-01T08:53:33;19.50;49.60
49379;DHT22;35254;47.990;-1.608;2023-02-01T08:55:59;19.50;49.90
49379;DHT22;35254;47.990;-1.608;2023-02-01T08:58:26;19.50;49.80
49379;DHT22;35254;47.990;-1.608;2023-02-01T09:00:51;19.40;49.90
49379;DHT22;35254;47.990;-1.608;2023-02-01T09:03:17;19.40;50.10
49379;DHT22;35254;47.990;-1.608;2023-02-01T09:05:43;19.40;50.10
49379;DHT22;35254;47.990;-1.608;2023-02-01T09:08:09;19.40;50.00
49379;DHT22;35254;47.990;-1.608;2023-02-01T09:10:36;19.30;50.20
49379;DHT22;35254;47.990;-1.608;2023-02-01T09:13:01;19.30;50.00
49379;DHT22;35254;47.990;-1.608;2023-02-01T09:15:28;19.30;49.30
49379;DHT22;35254;47.990;-1.608;2023-02-01T09:17:54;19.40;48.90
49379;DHT22;35254;47.990;-1.608;2023-02-01T09:20:20;19.50;48.80
49379;DHT22;35254;47.990;-1.608;2023-02-01T09:22:50;19.50;48.50
49379;DHT22;35254;47.990;-1.608;2023-02-01T09:25:16;19.60;48.20
49379;DHT22;35254;47.990;-1.608;2023-02-01T09:27:41;19.60;48.00
49379;DHT22;35254;47.990;-1.608;2023-02-01T09:30:08;19.60;48.20
49379;DHT22;35254;47.990;-1.608;2023-02-01T09:32:33;19.60;48.00
49379;DHT22;35254;47.990;-1.608;2023-02-01T09:34:59;19.70;48.10
49379;DHT22;35254;47.990;-1.608;2023-02-01T09:37:25;19.60;48.00
49379;DHT22;35254;47.990;-1.608;2023-02-01T09:39:51;19.60;48.00
49379;DHT22;35254;47.990;-1.608;2023-02-01T09:47:54;19.60;48.00
49379;DHT22;35254;47.990;-1.608;2023-02-01T09:50:34;19.70;47.90
49379;DHT22;35254;47.990;-1.608;2023-02-01T09:53:29;19.60;47.90
49379;DHT22;35254;47.990;-1.608;2023-02-01T09:56:04;19.60;47.80
49379;DHT22;35254;47.990;-1.608;2023-02-01T09:58:59;19.60;48.00
49379;DHT22;35254;47.990;-1.608;2023-02-01T10:01:27;19.60;47.90
49379;DHT22;35254;47.990;-1.608;2023-02-01T10:04:03;19.70;47.80
49379;DHT22;35254;47.990;-1.608;2023-02-01T10:15:02;19.70;47.80
49379;DHT22;35254;47.990;-1.608;2023-02-01T10:28:26;19.60;48.10
49379;DHT22;35254;47.990;-1.608;2023-02-01T10:30:56;19.70;48.10
49379;DHT22;35254;47.990;-1.608;2023-02-01T10:33:26;19.60;48.20
49379;DHT22;35254;47.990;-1.608;2023-02-01T10:35:56;19.70;47.80
49379;DHT22;35254;47.990;-1.608;2023-02-01T10:38:27;19.70;48.20
49379;DHT22;35254;47.990;-1.608;2023-02-01T10:40:56;19.70;48.40
49379;DHT22;35254;47.990;-1.608;2023-02-01T10:43:25;19.70;48.00
49379;DHT22;35254;47.990;-1.608;2023-02-01T10:45:51;19.70;48.10
49379;DHT22;35254;47.990;-1.608;2023-02-01T10:48:17;19.70;48.20
49379;DHT22;35254;47.990;-1.608;2023-02-01T10:53:24;19.70;48.10
49379;DHT22;35254;47.990;-1.608;2023-02-01T10:55:54;19.80;47.90
49379;DHT22;35254;47.990;-1.608;2023-02-01T10:58:29;19.80;48.00
49379;DHT22;35254;47.990;-1.608;2023-02-01T11:03:44;19.80;47.90
49379;DHT22;35254;47.990;-1.608;2023-02-01T11:08:43;19.70;48.00
49379;DHT22;35254;47.990;-1.608;2023-02-01T11:11:10;19.80;48.00
49379;DHT22;35254;47.990;-1.608;2023-02-01T11:13:39;19.70;48.00
49379;DHT22;35254;47.990;-1.608;2023-02-01T11:16:06;19.80;48.00
49379;DHT22;35254;47.990;-1.608;2023-02-01T11:18:37;19.80;47.80
49379;DHT22;35254;47.990;-1.608;2023-02-01T11:21:04;19.70;47.80
49379;DHT22;35254;47.990;-1.608;2023-02-01T11:23:31;19.70;47.80
49379;DHT22;35254;47.990;-1.608;2023-02-01T11:26:11;19.70;47.80
49379;DHT22;35254;47.990;-1.608;2023-02-01T11:28:40;19.70;47.60
49379;DHT22;35254;47.990;-1.608;2023-02-01T11:31:11;19.70;47.60
49379;DHT22;35254;47.990;-1.608;2023-02-01T11:33:41;19.70;47.60
49379;DHT22;35254;47.990;-1.608;2023-02-01T11:36:15;19.70;47.60
49379;DHT22;35254;47.990;-1.608;2023-02-01T11:38:51;19.70;47.80
49379;DHT22;35254;47.990;-1.608;2023-02-01T11:41:26;19.70;47.70
49379;DHT22;35254;47.990;-1.608;2023-02-01T11:43:58;19.70;47.60
49379;DHT22;35254;47.990;-1.608;2023-02-01T11:46:30;19.70;47.70
49379;DHT22;35254;47.990;-1.608;2023-02-01T11:48:57;19.70;47.70
49379;DHT22;35254;47.990;-1.608;2023-02-01T11:55:24;19.70;47.60
49379;DHT22;35254;47.990;-1.608;2023-02-01T12:06:17;19.70;47.90
49379;DHT22;35254;47.990;-1.608;2023-02-01T12:08:51;19.70;48.10
49379;DHT22;35254;47.990;-1.608;2023-02-01T12:14:05;19.70;47.90
49379;DHT22;35254;47.990;-1.608;2023-02-01T12:25:01;19.70;48.50
49379;DHT22;35254;47.990;-1.608;2023-02-01T12:44:26;19.80;48.90
49379;DHT22;35254;47.990;-1.608;2023-02-01T12:52:30;19.70;49.00
49379;DHT22;35254;47.990;-1.608;2023-02-01T12:57:44;19.70;48.90
49379;DHT22;35254;47.990;-1.608;2023-02-01T13:00:23;19.70;48.80
49379;DHT22;35254;47.990;-1.608;2023-02-01T13:03:02;19.60;48.70
49379;DHT22;35254;47.990;-1.608;2023-02-01T13:05:38;19.60;48.70
49379;DHT22;35254;47.990;-1.608;2023-02-01T13:08:11;19.60;48.70
49379;DHT22;35254;47.990;-1.608;2023-02-01T13:10:45;19.60;48.80
49379;DHT22;35254;47.990;-1.608;2023-02-01T13:15:43;19.60;48.50
49379;DHT22;35254;47.990;-1.608;2023-02-01T13:18:18;19.60;48.20
49379;DHT22;35254;47.990;-1.608;2023-02-01T13:23:35;19.50;48.40
49379;DHT22;35254;47.990;-1.608;2023-02-01T13:26:02;19.50;48.20
49379;DHT22;35254;47.990;-1.608;2023-02-01T13:28:42;19.50;48.30
49379;DHT22;35254;47.990;-1.608;2023-02-01T13:39:30;19.50;47.90
49379;DHT22;35254;47.990;-1.608;2023-02-01T13:42:11;19.50;47.90
49379;DHT22;35254;47.990;-1.608;2023-02-01T13:44:42;19.40;48.00
49379;DHT22;35254;47.990;-1.608;2023-02-01T13:47:40;19.40;47.90
49379;DHT22;35254;47.990;-1.608;2023-02-01T13:50:34;19.50;47.90
49379;DHT22;35254;47.990;-1.608;2023-02-01T13:58:31;19.40;47.80
49379;DHT22;35254;47.990;-1.608;2023-02-01T14:04:06;19.40;47.70
49379;DHT22;35254;47.990;-1.608;2023-02-01T14:11:47;19.40;47.80
49379;DHT22;35254;47.990;-1.608;2023-02-01T14:19:33;19.40;47.90
49379;DHT22;35254;47.990;-1.608;2023-02-01T14:22:27;19.40;48.00
49379;DHT22;35254;47.990;-1.608;2023-02-01T14:24:54;19.40;47.80
49379;DHT22;35254;47.990;-1.608;2023-02-01T14:27:23;19.40;47.80
49379;DHT22;35254;47.990;-1.608;2023-02-01T14:29:53;19.30;47.80
49379;DHT22;35254;47.990;-1.608;2023-02-01T14:32:26;19.40;47.70
49379;DHT22;35254;47.990;-1.608;2023-02-01T14:34:58;19.40;47.80
49379;DHT22;35254;47.990;-1.608;2023-02-01T14:37:30;19.40;47.70
49379;DHT22;35254;47.990;-1.608;2023-02-01T14:42:29;19.30;47.70
49379;DHT22;35254;47.990;-1.608;2023-02-01T15:09:13;19.30;47.50
49379;DHT22;35254;47.990;-1.608;2023-02-01T15:14:23;19.40;47.90
49379;DHT22;35254;47.990;-1.608;2023-02-01T15:16:48;19.30;47.60
49379;DHT22;35254;47.990;-1.608;2023-02-01T15:19:22;19.20;47.70
49379;DHT22;35254;47.990;-1.608;2023-02-01T15:21:50;19.30;47.60
49379;DHT22;35254;47.990;-1.608;2023-02-01T15:26:50;19.20;47.80
49379;DHT22;35254;47.990;-1.608;2023-02-01T15:29:17;19.20;47.80
49379;DHT22;35254;47.990;-1.608;2023-02-01T15:31:50;19.20;47.70
49379;DHT22;35254;47.990;-1.608;2023-02-01T15:34:18;19.20;47.60
49379;DHT22;35254;47.990;-1.608;2023-02-01T15:36:44;19.20;47.60
49379;DHT22;35254;47.990;-1.608;2023-02-01T15:41:58;19.20;47.60
49379;DHT22;35254;47.990;-1.608;2023-02-01T15:44:42;19.20;47.60
49379;DHT22;35254;47.990;-1.608;2023-02-01T15:47:26;19.20;47.60
49379;DHT22;35254;47.990;-1.608;2023-02-01T15:49:54;19.20;47.60
49379;DHT22;35254;47.990;-1.608;2023-02-01T15:52:35;19.20;47.60
49379;DHT22;35254;47.990;-1.608;2023-02-01T15:55:07;19.20;47.70
49379;DHT22;35254;47.990;-1.608;2023-02-01T15:57:38;19.20;47.60
49379;DHT22;35254;47.990;-1.608;2023-02-01T16:00:22;19.20;47.60
49379;DHT22;35254;47.990;-1.608;2023-02-01T16:02:58;19.20;47.60
49379;DHT22;35254;47.990;-1.608;2023-02-01T16:05:36;19.20;47.60
49379;DHT22;35254;47.990;-1.608;2023-02-01T16:10:41;19.20;47.60
49379;DHT22;35254;47.990;-1.608;2023-02-01T16:13:08;19.20;47.60
49379;DHT22;35254;47.990;-1.608;2023-02-01T16:15:34;19.20;47.70
49379;DHT22;35254;47.990;-1.608;2023-02-01T16:18:00;19.10;47.60
49379;DHT22;35254;47.990;-1.608;2023-02-01T16:20:25;19.10;47.60
49379;DHT22;35254;47.990;-1.608;2023-02-01T16:22:51;19.20;47.60
49379;DHT22;35254;47.990;-1.608;2023-02-01T16:25:17;19.20;47.60
49379;DHT22;35254;47.990;-1.608;2023-02-01T16:27:42;19.20;47.60
49379;DHT22;35254;47.990;-1.608;2023-02-01T16:30:08;19.10;47.80
49379;DHT22;35254;47.990;-1.608;2023-02-01T16:32:36;19.10;47.90
49379;DHT22;35254;47.990;-1.608;2023-02-01T16:35:11;19.10;47.60
49379;DHT22;35254;47.990;-1.608;2023-02-01T16:37:39;19.10;47.60
49379;DHT22;35254;47.990;-1.608;2023-02-01T16:40:05;19.10;47.60
49379;DHT22;35254;47.990;-1.608;2023-02-01T16:42:30;19.10;47.80
49379;DHT22;35254;47.990;-1.608;2023-02-01T16:44:56;19.00;47.60
49379;DHT22;35254;47.990;-1.608;2023-02-01T16:47:22;19.00;47.90
49379;DHT22;35254;47.990;-1.608;2023-02-01T16:49:48;19.10;47.70
49379;DHT22;35254;47.990;-1.608;2023-02-01T16:52:19;19.00;47.50
49379;DHT22;35254;47.990;-1.608;2023-02-01T16:54:46;19.00;47.90
49379;DHT22;35254;47.990;-1.608;2023-02-01T16:57:15;19.00;47.90
49379;DHT22;35254;47.990;-1.608;2023-02-01T16:59:41;19.00;48.10
49379;DHT22;35254;47.990;-1.608;2023-02-01T17:02:16;19.10;47.80
49379;DHT22;35254;47.990;-1.608;2023-02-01T17:04:44;19.10;48.20
49379;DHT22;35254;47.990;-1.608;2023-02-01T17:07:17;19.10;48.00
49379;DHT22;35254;47.990;-1.608;2023-02-01T17:09:47;19.10;48.20
49379;DHT22;35254;47.990;-1.608;2023-02-01T17:12:26;19.10;48.30
49379;DHT22;35254;47.990;-1.608;2023-02-01T17:14:52;19.10;48.00
49379;DHT22;35254;47.990;-1.608;2023-02-01T17:17:20;19.10;48.10
49379;DHT22;35254;47.990;-1.608;2023-02-01T17:19:48;19.10;48.00
49379;DHT22;35254;47.990;-1.608;2023-02-01T17:22:17;19.10;48.30
49379;DHT22;35254;47.990;-1.608;2023-02-01T17:24:43;19.10;48.20
49379;DHT22;35254;47.990;-1.608;2023-02-01T17:27:09;19.10;48.30
49379;DHT22;35254;47.990;-1.608;2023-02-01T17:29:35;19.10;48.30
49379;DHT22;35254;47.990;-1.608;2023-02-01T17:32:02;19.10;48.20
49379;DHT22;35254;47.990;-1.608;2023-02-01T17:34:27;19.10;48.20
49379;DHT22;35254;47.990;-1.608;2023-02-01T17:36:53;19.10;48.50
49379;DHT22;35254;47.990;-1.608;2023-02-01T17:39:19;19.10;48.30
49379;DHT22;35254;47.990;-1.608;2023-02-01T17:42:04;19.10;48.40
49379;DHT22;35254;47.990;-1.608;2023-02-01T17:44:30;19.10;48.30
49379;DHT22;35254;47.990;-1.608;2023-02-01T17:46:57;19.10;48.40
49379;DHT22;35254;47.990;-1.608;2023-02-01T17:49:24;19.10;48.50
49379;DHT22;35254;47.990;-1.608;2023-02-01T17:51:50;19.10;48.40
49379;DHT22;35254;47.990;-1.608;2023-02-01T17:54:16;19.10;48.30
49379;DHT22;35254;47.990;-1.608;2023-02-01T17:56:44;19.10;48.30
49379;DHT22;35254;47.990;-1.608;2023-02-01T17:59:10;19.10;48.40
49379;DHT22;35254;47.990;-1.608;2023-02-01T18:01:36;19.10;48.30
49379;DHT22;35254;47.990;-1.608;2023-02-01T18:04:02;19.10;48.20
49379;DHT22;35254;47.990;-1.608;2023-02-01T18:06:32;19.20;48.10
49379;DHT22;35254;47.990;-1.608;2023-02-01T18:08:58;19.10;48.30
49379;DHT22;35254;47.990;-1.608;2023-02-01T18:11:24;19.10;48.20
49379;DHT22;35254;47.990;-1.608;2023-02-01T18:13:51;19.20;48.40
49379;DHT22;35254;47.990;-1.608;2023-02-01T18:18:49;19.20;48.20
49379;DHT22;35254;47.990;-1.608;2023-02-01T18:21:16;19.20;48.10
49379;DHT22;35254;47.990;-1.608;2023-02-01T18:23:43;19.20;48.30
49379;DHT22;35254;47.990;-1.608;2023-02-01T18:26:15;19.20;48.20
49379;DHT22;35254;47.990;-1.608;2023-02-01T18:28:41;19.20;48.20
49379;DHT22;35254;47.990;-1.608;2023-02-01T18:31:20;19.20;49.30
49379;DHT22;35254;47.990;-1.608;2023-02-01T18:33:47;19.20;53.30